Weatherdata for SK6EI
Location: Mountain Billingen, JO68VK in Skövde

Date & Time Temperature Wind Rain Humidity Pressure
Direction Average Gust
24/02-2021 22:59 CET 6.9 °C WSW 3 m/s 8 m/s 0.3 mm 99% 1008 hPa, rising slowly
23:59 CET 7.0 °C WSW 3 m/s 7 m/s 0.3 mm 99% 1008 hPa, falling slowly
25/02-2021 00:59 CET 6.9 °C W 3 m/s 7 m/s 0.0 mm 99% 1008 hPa, falling slowly
01:59 CET 6.8 °C WSW 3 m/s 7 m/s 0.0 mm 99% 1008 hPa, falling slowly
02:59 CET 6.9 °C W 4 m/s 10 m/s 0.0 mm 97% 1007 hPa, falling slowly
03:59 CET 7.1 °C WSW 3 m/s 8 m/s 0.0 mm 97% 1007 hPa, falling slowly
04:56 CET 7.3 °C W 3 m/s 7 m/s 0.3 mm 97% 1006 hPa, falling slowly


24 hours ending 2259 CET on 24 Feb 2021 Date & time
Daytime max temp 8.9 °C 24/02-20211109 CET
Night min temp 4.1 °C 24/02-20210111 CET
Total rainfall 0.9 mm -
Average wind speed 3 m/s -
Highest gust speed 12 m/s 24/02-20211324 CET
 
From 2300 CET on 24 Feb to 0456 CET on 25 Feb 2021 Date & time
Daytime max temp
Night min temp 6.7 °C 25/02-20210214 CET
Total rainfall 0.6 mm -
Average wind speed 3 m/s -
Highest gust speed 10 m/s 25/02-20210224 CET


Choose graph for latest | Hour | 24 Hours | 7 Days | 28 Days | 31 Days table |
History: 2017 | 2018 | 2019

24 hours ending Temperature Rainfall
  day max     night min  
 2021/01/24 22:58 CET   -0.6 °C  -4.0 °C  0.0 mm
 2021/01/25 22:58 CET   -1.7 °C  -4.3 °C  0.0 mm
 2021/01/26 22:58 CET   -3.3 °C  -6.6 °C  0.0 mm
 2021/01/27 22:58 CET   -2.2 °C  -9.3 °C  0.0 mm
 2021/01/28 22:58 CET   -4.8 °C  -7.6 °C  0.0 mm
 2021/01/29 22:58 CET   -5.2 °C  -10.9 °C  0.0 mm
 2021/01/30 22:58 CET   -5.9 °C  -12.2 °C  0.0 mm
 2021/01/31 22:58 CET   -5.2 °C  -10.0 °C  0.0 mm
 2021/02/01 22:58 CET   -1.9 °C  -10.5 °C  0.0 mm
 2021/02/02 22:58 CET   -2.4 °C  -5.3 °C  0.0 mm
 2021/02/03 22:58 CET   -7.9 °C  -12.1 °C  0.0 mm
 2021/02/04 22:58 CET   -8.7 °C  -15.1 °C  0.0 mm
 2021/02/05 22:58 CET   -6.0 °C  -15.3 °C  0.0 mm
 2021/02/06 22:58 CET   -6.5 °C  -13.8 °C  0.0 mm
 2021/02/07 22:58 CET   -5.1 °C  -13.4 °C  0.0 mm
 2021/02/08 22:57 CET   -5.9 °C  -13.2 °C  0.0 mm
 2021/02/09 22:58 CET   -7.6 °C  -11.3 °C  0.0 mm
 2021/02/10 22:58 CET   -7.2 °C  -11.3 °C  0.0 mm
 2021/02/11 22:58 CET   -6.7 °C  -13.5 °C  0.0 mm
 2021/02/12 22:58 CET   -3.4 °C  -15.4 °C  0.0 mm
 2021/02/13 22:58 CET   -3.0 °C  -9.9 °C  0.0 mm
 2021/02/14 22:58 CET   -2.5 °C  -9.5 °C  0.0 mm
 2021/02/15 22:58 CET   -0.1 °C  -10.4 °C  0.0 mm
 2021/02/16 22:58 CET   0.2 °C  -3.6 °C  0.0 mm
 2021/02/17 22:58 CET   -0.6 °C  -3.8 °C  0.0 mm
 2021/02/18 22:58 CET   -0.3 °C  -4.3 °C  0.0 mm
 2021/02/19 22:58 CET   2.2 °C  -1.3 °C  0.3 mm
 2021/02/20 22:58 CET   5.3 °C  1.4 °C  0.9 mm
 2021/02/21 22:55 CET   10.6 °C  4.9 °C  0.0 mm
 2021/02/22 22:59 CET   11.6 °C  1.3 °C  0.0 mm
 2021/02/23 22:56 CET   6.1 °C  2.7 °C  0.0 mm